Time;durP1;ratioP1;P1;durP2;ratioP2;P2;SDS_P1;SDS_P2;PMS_P1;PMS_P2;Temp;Humidity;BMP_temperature;BMP_pressure;BME280_temperature;BME280_humidity;BME280_pressure;Samples;Min_cycle;Max_cycle;Signal;HPM_P1;HPM_P2
2022/12/18 07:35:40;;;;;;;1.00;1.00;;;-4.00;99.90;-4.40;102166.00;;;;5099437;28;20319;-80
2022/12/18 07:38:06;;;;;;;0.80;0.80;;;-3.90;99.90;-4.70;102148.00;;;;5079963;28;20873;-80
2022/12/18 07:40:31;;;;;;;2.97;2.67;;;-3.90;99.90;-4.20;102134.00;;;;5061458;28;20648;-79
2022/12/18 07:42:57;;;;;;;5.77;5.37;;;-3.80;99.90;-4.60;102127.00;;;;5080559;28;20843;-78
2022/12/18 07:45:23;;;;;;;2.57;2.47;;;-3.90;99.90;-4.40;102125.00;;;;5109551;28;20184;-80
2022/12/18 07:47:49;;;;;;;5.03;4.53;;;-3.80;99.90;-4.70;102143.00;;;;5078078;28;20199;-82
2022/12/18 07:50:17;;;;;;;3.10;2.57;;;-3.90;99.90;-5.00;102130.00;;;;5098167;28;20200;-79
2022/12/18 07:52:45;;;;;;;4.50;4.17;;;-4.10;99.90;-4.90;102133.00;;;;5080434;28;20200;-81
2022/12/18 07:55:11;;;;;;;3.07;2.93;;;-4.10;99.90;-4.70;102136.00;;;;5078768;28;20185;-81
2022/12/18 07:57:56;;;;;;;2.10;2.00;;;-4.00;99.90;-4.90;102134.00;;;;5079401;28;20192;-83
2022/12/18 08:00:31;;;;;;;1.87;1.77;;;-4.00;99.90;-4.70;102128.00;;;;5055712;28;20643;-83
2022/12/18 08:02:57;;;;;;;5.17;4.87;;;-4.00;99.90;-4.60;102119.00;;;;5079108;28;20203;-83
2022/12/18 08:05:25;;;;;;;2.80;2.70;;;-3.90;99.90;-4.40;102113.00;;;;5073469;28;20225;-84
2022/12/18 08:07:55;;;;;;;1.73;1.63;;;-3.80;99.90;-4.60;102120.00;;;;5046634;28;20193;-82
2022/12/18 08:10:21;;;;;;;1.40;1.40;;;-3.80;99.90;-4.50;102120.00;;;;5080993;28;20284;-84
2022/12/18 08:12:51;;;;;;;2.13;2.07;;;-3.80;99.90;-4.50;102120.00;;;;5112300;28;20199;-83
2022/12/18 08:15:17;;;;;;;4.73;4.47;;;-3.70;99.90;-4.40;102129.00;;;;5080826;28;20211;-83
2022/12/18 08:17:46;;;;;;;3.53;2.50;;;-3.70;99.90;-4.20;102135.00;;;;5078346;28;20189;-84
2022/12/18 08:20:18;;;;;;;1.70;1.70;;;-3.70;99.90;-3.80;102120.00;;;;5074088;28;20255;-84
2022/12/18 08:22:45;;;;;;;2.17;2.10;;;-3.40;99.90;-4.10;102102.00;;;;5094900;28;20188;-83
2022/12/18 08:25:13;;;;;;;1.73;1.70;;;-3.40;99.90;-4.10;102103.00;;;;5080651;28;20184;-82
2022/12/18 08:27:43;;;;;;;2.67;2.47;;;-3.40;99.90;-4.30;102116.00;;;;5082520;28;20619;-82
2022/12/18 08:30:10;;;;;;;3.40;3.20;;;-3.50;99.90;-4.20;102131.00;;;;5106788;28;20661;-82
2022/12/18 08:32:39;;;;;;;4.90;4.43;;;-3.40;99.90;-4.20;101912.00;;;;5095672;28;20728;-83
2022/12/18 08:35:08;;;;;;;2.27;2.13;;;-3.50;99.90;-4.10;102116.00;;;;5059938;28;20652;-83
2022/12/18 08:37:35;;;;;;;2.80;2.60;;;-3.30;99.90;-4.00;102044.00;;;;5076676;28;20212;-82
2022/12/18 08:40:01;;;;;;;1.73;1.57;;;-3.30;99.90;-4.00;102042.00;;;;5077209;28;20558;-82
2022/12/18 08:45:24;;;;;;;3.37;3.17;;;-3.20;99.90;-3.80;102108.00;;;;5101448;28;20222;-81
2022/12/18 08:47:50;;;;;;;2.10;1.93;;;-3.10;99.90;-3.60;102139.00;;;;5066698;28;20184;-81
2022/12/18 08:50:16;;;;;;;2.70;2.50;;;-2.90;99.90;-3.70;102116.00;;;;5080532;28;20189;-80
2022/12/18 08:52:42;;;;;;;7.20;6.60;;;-3.00;99.90;-4.00;102140.00;;;;5076760;28;20227;-80
2022/12/18 08:55:09;;;;;;;1.73;1.73;;;-3.00;99.90;-3.80;102039.00;;;;5106289;28;20549;-82
2022/12/18 08:57:38;;;;;;;3.33;3.10;;;-3.00;99.90;-3.70;102126.00;;;;5059544;28;20181;-83
2022/12/18 09:00:05;;;;;;;6.03;3.50;;;-3.00;99.90;-3.70;102096.00;;;;5069849;28;20191;-81
2022/12/18 09:02:32;;;;;;;0.70;0.70;;;-3.00;99.90;-3.60;102050.00;;;;5076669;28;20667;-82
2022/12/18 09:05:00;;;;;;;2.40;2.30;;;-2.90;99.90;-3.60;102105.00;;;;5075954;28;20203;-82
2022/12/18 09:07:26;;;;;;;3.73;2.37;;;-2.80;99.90;-3.50;102114.00;;;;5092530;28;20196;-82
2022/12/18 09:09:52;;;;;;;3.13;2.83;;;-2.70;99.90;-3.00;102105.00;;;;5101358;28;20196;-83
2022/12/18 09:12:21;;;;;;;3.70;3.40;;;-2.50;99.90;-3.30;102116.00;;;;5098736;28;20205;-82
2022/12/18 09:14:47;;;;;;;1.83;1.73;;;-2.60;99.90;-3.20;102111.00;;;;5087545;28;20189;-82
2022/12/18 09:17:15;;;;;;;2.70;1.97;;;-2.50;99.90;-3.60;102100.00;;;;5055628;28;20567;-83
2022/12/18 09:19:41;;;;;;;3.77;2.70;;;-2.70;99.90;-3.10;102100.00;;;;5074650;28;20184;-82
2022/12/18 09:22:09;;;;;;;1.10;0.83;;;-2.50;99.90;-3.20;102105.00;;;;5077179;28;20556;-80
2022/12/18 09:24:35;;;;;;;3.30;3.00;;;-2.50;99.90;-3.20;102029.00;;;;5086921;28;20197;-79
2022/12/18 09:27:01;;;;;;;1.00;1.00;;;-2.50;99.90;-3.50;102106.00;;;;5073337;28;20188;-80
2022/12/18 09:29:27;;;;;;;1.60;1.50;;;-2.60;99.90;-3.40;102092.00;;;;5094627;28;20188;-79
2022/12/18 09:31:53;;;;;;;3.17;1.97;;;-2.70;99.90;-3.20;102096.00;;;;5076210;28;20212;-78
2022/12/18 09:34:21;;;;;;;3.83;2.53;;;-2.50;99.90;-3.00;102077.00;;;;5099265;28;20200;-81
2022/12/18 09:36:51;;;;;;;3.23;2.57;;;-2.40;99.90;-3.20;102106.00;;;;5078365;28;20258;-83
2022/12/18 09:39:28;;;;;;;3.80;2.67;;;-2.40;99.90;-3.40;102049.00;;;;5069588;28;20556;-83
2022/12/18 09:42:32;;;;;;;2.40;2.20;;;-2.40;99.90;-2.70;102089.00;;;;5057066;28;20200;-83
2022/12/18 09:45:16;;;;;;;7.93;5.23;;;-2.30;99.90;-2.70;102101.00;;;;5055454;28;20281;-83
2022/12/18 09:47:45;;;;;;;3.60;2.77;;;-2.00;99.90;-2.90;102103.00;;;;5081797;28;20202;-84
2022/12/18 09:50:37;;;;;;;5.97;3.77;;;-2.10;99.90;-2.90;102104.00;;;;5064192;28;20643;-82
2022/12/18 09:53:33;;;;;;;0.33;0.33;;;-2.10;99.90;-3.20;102017.00;;;;5031781;28;20247;-83
2022/12/18 09:56:18;;;;;;;1.57;1.00;;;-2.20;99.90;-2.70;102082.00;;;;5075866;28;20524;-82
2022/12/18 09:59:00;;;;;;;1.97;1.67;;;-2.10;99.90;-2.70;102031.00;;;;5064452;28;20188;-83
2022/12/18 10:01:28;;;;;;;5.60;4.67;;;-2.00;99.90;-3.00;102070.00;;;;5050703;28;20592;-83
2022/12/18 10:03:56;;;;;;;5.23;4.67;;;-2.00;99.90;-3.00;101997.00;;;;5075438;28;20185;-83
2022/12/18 10:06:36;;;;;;;0.37;0.37;;;-2.10;99.90;-3.10;102024.00;;;;5077524;28;20257;-80
2022/12/18 10:09:42;;;;;;;2.63;1.97;;;-2.10;99.90;-2.90;102067.00;;;;5076591;28;20647;-83
2022/12/18 10:12:39;;;;;;;9.03;4.90;;;-2.00;99.90;-3.00;102063.00;;;;5076098;28;20226;-82
2022/12/18 10:15:40;;;;;;;2.77;2.57;;;-2.00;99.90;-2.60;102055.00;;;;5073143;28;20670;-83
2022/12/18 10:18:25;;;;;;;2.20;2.10;;;-1.90;99.90;-2.70;102064.00;;;;5075418;28;20511;-70
2022/12/18 10:33:47;;;;;;;3.17;1.93;;;-2.10;99.90;-2.80;102017.00;;;;5104481;27;20959;-80
2022/12/18 10:36:39;;;;;;;3.10;2.80;;;-2.00;99.90;-2.50;102020.00;;;;5072603;28;20193;-78
2022/12/18 10:39:26;;;;;;;0.40;0.40;;;-1.70;99.90;-2.20;102023.00;;;;5068042;28;20185;-79
2022/12/18 10:42:17;;;;;;;0.77;0.77;;;-1.50;99.90;-1.80;102034.00;;;;5072604;28;20191;-78
2022/12/18 10:45:12;;;;;;;1.80;1.70;;;-1.20;99.90;-1.80;101972.00;;;;5056996;28;20185;-77
2022/12/18 10:47:51;;;;;;;6.23;5.63;;;-1.10;99.90;-1.40;102026.00;;;;5069606;28;20189;-78
2022/12/18 10:50:40;;;;;;;1.20;1.20;;;-1.00;99.90;-1.30;102025.00;;;;5090149;28;20673;-78
2022/12/18 10:53:06;;;;;;;0.93;0.93;;;-0.80;99.90;-1.80;102039.00;;;;5062302;28;20228;-78
2022/12/18 10:55:38;;;;;;;0.50;0.50;;;-1.00;99.90;-1.20;102047.00;;;;5071722;28;20639;-78
2022/12/18 10:58:29;;;;;;;4.57;2.63;;;-0.90;99.90;-1.00;102057.00;;;;5071668;28;20177;-78
2022/12/18 11:01:13;;;;;;;0.93;0.93;;;-0.60;99.90;-0.70;102049.00;;;;5085924;28;20254;-78
2022/12/18 11:03:55;;;;;;;3.33;1.27;;;-0.40;99.90;-1.00;102048.00;;;;5071449;28;20185;-77
2022/12/18 11:06:24;;;;;;;1.23;0.67;;;-0.60;99.90;-1.60;102034.00;;;;5086749;28;20212;-77
2022/12/18 11:09:23;;;;;;;1.37;1.30;;;-0.70;99.90;-1.50;102039.00;;;;5071733;28;20185;-79
2022/12/18 11:11:59;;;;;;;2.77;2.13;;;-0.90;99.90;-1.60;102007.00;;;;5071682;28;20197;-75
2022/12/18 11:14:51;;;;;;;5.83;2.73;;;-0.90;99.90;-1.40;102044.00;;;;5071592;28;20176;-74
2022/12/18 11:17:26;;;;;;;2.60;1.88;;;-0.70;99.90;-1.40;102051.00;;;;5065604;28;20444;-73
2022/12/18 11:20:38;;;;;;;1.03;1.03;;;-0.80;99.90;-1.40;102044.00;;;;5055774;28;20624;-72
2022/12/18 11:23:36;;;;;;;3.00;2.20;;;-0.80;99.90;-1.30;102045.00;;;;4968157;28;20574;-73
2022/12/18 11:26:39;;;;;;;0.97;0.97;;;-0.70;99.90;-1.80;102046.00;;;;4966373;28;20196;-73
2022/12/18 11:29:38;;;;;;;1.17;0.80;;;-0.80;99.90;-1.10;102032.00;;;;4965314;28;20554;-73
2022/12/18 11:32:44;;;;;;;3.60;2.67;;;-0.80;99.90;-1.20;101976.00;;;;4965528;28;20236;-73
2022/12/18 11:35:39;;;;;;;2.73;2.53;;;-0.70;99.90;-1.20;102028.00;;;;5065520;28;20189;-75
2022/12/18 11:38:41;;;;;;;1.30;0.80;;;-0.60;99.90;-1.30;102038.00;;;;5071206;28;20583;-75
2022/12/18 11:45:18;;;;;;;5.03;4.33;;;-0.60;99.90;-0.90;102029.00;;;;5069198;28;20184;-74
2022/12/18 11:48:27;;;;;;;1.43;1.33;;;-0.50;99.90;-1.30;102026.00;;;;5017351;28;20192;-70
2022/12/18 11:50:59;;;;;;;2.80;1.50;;;-0.60;99.90;-1.00;101977.00;;;;5038234;28;20175;-70
2022/12/18 11:53:46;;;;;;;3.13;2.63;;;-0.50;99.90;-0.80;102000.00;;;;5054837;28;20201;-70
2022/12/18 11:56:31;;;;;;;2.43;1.53;;;-0.40;99.90;-0.90;102018.00;;;;5055409;28;20197;-70
2022/12/18 11:59:12;;;;;;;3.97;3.43;;;-0.40;99.90;-0.90;102002.00;;;;5055028;28;20291;-70
2022/12/18 12:02:16;;;;;;;2.77;2.17;;;-0.30;99.90;-0.50;101952.00;;;;5073727;28;20274;-70
2022/12/18 12:05:20;;;;;;;4.33;3.73;;;-0.20;99.90;-0.80;101993.00;;;;5073582;28;20189;-70
2022/12/18 12:07:58;;;;;;;4.27;2.80;;;-0.20;99.90;-0.50;102006.00;;;;5074194;28;20189;-70
2022/12/18 12:10:51;;;;;;;0.50;0.50;;;-0.10;99.90;-0.60;101992.00;;;;5073592;28;20191;-70
2022/12/18 12:13:51;;;;;;;0.50;0.50;;;-0.10;99.90;-0.80;102002.00;;;;5073304;28;20591;-70
2022/12/18 12:16:18;;;;;;;0.20;0.20;;;-0.20;99.90;-0.40;102003.00;;;;5070171;28;20201;-68
2022/12/18 12:19:11;;;;;;;1.93;1.80;;;-0.10;99.90;-0.60;102000.00;;;;5073814;28;20185;-70
2022/12/18 12:21:58;;;;;;;0.57;0.57;;;-0.10;99.90;-0.60;101944.00;;;;5054285;28;20660;-70
2022/12/18 12:24:54;;;;;;;2.57;2.23;;;-0.10;99.90;-0.50;101990.00;;;;5055923;28;20687;-70
2022/12/18 12:27:59;;;;;;;0.87;0.80;;;-0.20;99.90;-0.60;101985.00;;;;5073862;28;20189;-69
2022/12/18 12:30:43;;;;;;;10.73;6.83;;;-0.10;99.90;-0.10;101979.00;;;;5034111;28;20205;-70
2022/12/18 12:33:52;;;;;;;4.90;2.80;;;0.10;99.90;-0.40;101982.00;;;;5072859;28;20232;-70
2022/12/18 12:36:52;;;;;;;1.90;1.80;;;0.10;99.90;-0.30;101975.00;;;;5073839;28;20196;-70
2022/12/18 12:39:52;;;;;;;4.40;2.80;;;0.10;99.90;-0.40;101969.00;;;;5046662;28;20205;-70
2022/12/18 12:45:53;;;;;;;1.17;0.80;;;0.00;99.90;-0.30;101964.00;;;;5058011;28;20659;-68
2022/12/18 12:48:51;;;;;;;0.93;0.93;;;0.10;99.90;-0.50;101964.00;;;;5054941;28;20306;-70
2022/12/18 12:51:54;;;;;;;1.03;1.03;;;0.10;99.90;-0.60;101960.00;;;;5072624;28;20276;-71
2022/12/18 12:55:01;;;;;;;2.20;2.00;;;0.00;99.90;-0.40;101938.00;;;;5070980;28;20250;-69
2022/12/18 12:57:59;;;;;;;1.80;1.70;;;0.20;99.90;-0.40;101912.00;;;;5055905;28;20350;-70
2022/12/18 13:00:40;;;;;;;1.97;0.80;;;0.10;99.90;-0.30;101938.00;;;;5030458;28;20660;-70
2022/12/18 13:03:35;;;;;;;1.43;1.37;;;0.20;99.90;-0.10;101929.00;;;;5055284;28;20258;-70
2022/12/18 13:06:16;;;;;;;1.23;1.13;;;0.30;99.90;-0.40;101938.00;;;;5072732;28;20201;-71
2022/12/18 13:09:10;;;;;;;0.60;0.60;;;0.10;99.90;-0.10;101883.00;;;;5054340;28;20264;-70
2022/12/18 13:14:33;;;;;;;1.40;1.30;;;0.30;99.90;0.10;101920.00;;;;5073235;28;20227;-71
2022/12/18 13:17:20;;;;;;;0.80;0.80;;;0.30;99.90;-0.40;101921.00;;;;5054197;28;20205;-73
2022/12/18 13:20:10;;;;;;;0.87;0.87;;;0.30;99.90;-0.20;101912.00;;;;5071452;28;20182;-70
2022/12/18 13:22:43;;;;;;;1.77;1.67;;;0.20;99.90;0.00;101913.00;;;;5071826;28;20189;-70
2022/12/18 13:25:38;;;;;;;1.30;1.20;;;0.30;99.90;-0.10;101899.00;;;;5053952;28;20200;-70
2022/12/18 13:28:46;;;;;;;2.03;1.27;;;0.40;99.90;0.10;101897.00;;;;5055174;28;20601;-70
2022/12/18 13:31:38;;;;;;;0.93;0.70;;;0.50;99.90;-0.10;101902.00;;;;5068078;28;20197;-71
2022/12/18 13:34:29;;;;;;;0.80;0.80;;;0.40;99.90;0.00;101899.00;;;;5044672;28;20189;-70
2022/12/18 13:37:33;;;;;;;2.50;2.30;;;0.40;99.90;-0.70;101894.00;;;;5055450;28;20188;-70
2022/12/18 13:40:02;;;;;;;2.00;1.80;;;0.20;99.90;0.20;101882.00;;;;5072525;28;20189;-70
2022/12/18 13:46:04;;;;;;;0.37;0.37;;;0.50;99.90;-0.30;101891.00;;;;5056054;28;20184;-70
2022/12/18 13:48:36;;;;;;;2.83;1.60;;;0.30;99.90;-0.50;101897.00;;;;5072022;28;20189;-70
2022/12/18 13:51:10;;;;;;;1.67;1.57;;;0.30;99.90;-0.80;101908.00;;;;5053074;28;20181;-70
2022/12/18 13:54:04;;;;;;;0.57;0.57;;;0.20;99.90;0.00;101894.00;;;;5053173;28;20189;-70
2022/12/18 13:56:44;;;;;;;3.20;2.93;;;0.40;99.90;-0.10;101878.00;;;;5071761;28;20201;-70
2022/12/18 13:59:20;;;;;;;0.77;0.77;;;0.50;99.90;0.20;101897.00;;;;5054152;28;20181;-70
2022/12/18 14:01:56;;;;;;;0.90;0.90;;;0.50;99.90;0.10;101887.00;;;;5054002;28;20211;-70
2022/12/18 14:04:35;;;;;;;3.47;1.53;;;0.50;99.90;0.20;101899.00;;;;5072017;28;20212;-71
2022/12/18 14:07:34;;;;;;;3.43;3.17;;;0.50;99.90;-0.30;101894.00;;;;5071267;28;20268;-70
2022/12/18 14:10:03;;;;;;;2.30;2.10;;;0.40;99.90;-0.10;101883.00;;;;5051043;28;20197;-70
2022/12/18 14:15:40;;;;;;;1.47;1.37;;;0.50;99.90;0.10;101863.00;;;;5059517;28;20263;-71
2022/12/18 14:18:25;;;;;;;2.20;1.43;;;0.50;99.90;-0.10;101880.00;;;;5053540;28;20181;-71
2022/12/18 14:20:56;;;;;;;3.07;2.23;;;0.60;99.90;0.10;101872.00;;;;5071942;28;20536;-71
2022/12/18 14:23:44;;;;;;;2.50;1.70;;;0.50;99.90;0.00;101852.00;;;;5053121;28;20193;-71
2022/12/18 14:26:29;;;;;;;3.63;3.30;;;0.50;99.90;-0.40;101865.00;;;;5052380;28;20216;-71
2022/12/18 14:29:21;;;;;;;0.40;0.40;;;0.50;99.90;0.00;101827.00;;;;5070305;28;20193;-71
2022/12/18 14:32:37;;;;;;;2.07;1.57;;;0.50;99.90;-0.30;101835.00;;;;5069057;28;20213;-71
2022/12/18 14:35:13;;;;;;;3.60;1.70;;;0.50;99.90;-0.40;101816.00;;;;5047636;28;20660;-71
2022/12/18 14:37:45;;;;;;;4.60;3.57;;;0.40;99.90;-0.30;101816.00;;;;5070571;28;20189;-70
2022/12/18 14:40:21;;;;;;;4.43;3.37;;;0.30;99.90;-0.30;101810.00;;;;5055272;28;20212;-71
2022/12/18 14:42:50;;;;;;;6.83;4.13;;;0.50;99.90;-0.30;101810.00;;;;5069333;28;20184;-71
2022/12/18 14:45:40;;;;;;;3.70;3.40;;;0.40;99.90;-0.20;101800.00;;;;5054877;28;20192;-72
2022/12/18 14:48:21;;;;;;;1.40;1.33;;;0.50;99.90;-0.50;101817.00;;;;5055014;28;20196;-72
2022/12/18 14:51:21;;;;;;;4.10;3.73;;;0.40;99.90;-0.20;101810.00;;;;5042994;28;20319;-72
2022/12/18 14:54:01;;;;;;;2.50;1.40;;;0.50;99.90;-0.20;101805.00;;;;5046239;28;20193;-72
2022/12/18 14:57:02;;;;;;;2.80;2.60;;;0.50;99.90;-0.20;101814.00;;;;5054404;28;20186;-72
2022/12/18 14:59:34;;;;;;;0.53;0.53;;;0.50;99.90;-0.40;101796.00;;;;5054668;28;20197;-72
2022/12/18 15:02:21;;;;;;;7.50;2.43;;;0.50;99.90;-0.10;101748.00;;;;5053283;28;20177;-71
2022/12/18 15:05:27;;;;;;;4.10;3.53;;;0.50;99.90;0.00;101806.00;;;;5053948;28;20198;-72
2022/12/18 15:08:03;;;;;;;2.57;1.63;;;0.70;99.90;-0.20;101781.00;;;;5051613;28;20198;-72
2022/12/18 15:10:40;;;;;;;4.33;4.07;;;0.60;99.90;0.30;101787.00;;;;5054151;28;20553;-72
2022/12/18 15:13:23;;;;;;;7.87;4.67;;;0.70;99.90;0.10;101799.00;;;;5055381;28;20212;-72
2022/12/18 15:15:58;;;;;;;5.13;3.97;;;0.80;99.90;-0.20;101795.00;;;;5061625;28;20181;-72
2022/12/18 15:18:45;;;;;;;2.57;2.37;;;0.60;99.90;-0.10;101804.00;;;;5055191;28;20671;-72
2022/12/18 15:21:44;;;;;;;2.17;1.73;;;0.60;99.90;-0.10;101793.00;;;;5057733;28;20189;-72
2022/12/18 15:24:45;;;;;;;3.80;2.70;;;0.60;99.90;0.30;101790.00;;;;5017642;28;20232;-72
2022/12/18 15:27:37;;;;;;;2.20;2.07;;;0.80;99.90;0.00;101802.00;;;;5026376;28;20247;-72
2022/12/18 15:30:41;;;;;;;5.20;3.23;;;0.70;99.90;0.10;101807.00;;;;5058336;28;20192;-72
2022/12/18 15:33:58;;;;;;;1.90;1.80;;;0.80;99.90;0.30;101802.00;;;;5050613;28;20213;-72
2022/12/18 15:36:30;;;;;;;2.87;2.57;;;0.80;99.90;0.30;101811.00;;;;5052590;28;20201;-72
2022/12/18 15:39:25;;;;;;;2.77;1.90;;;0.90;99.90;0.40;101816.00;;;;5075607;28;20185;-72
2022/12/18 15:44:52;;;;;;;3.20;3.03;;;1.00;99.90;0.40;101813.00;;;;5060581;28;20184;-72
2022/12/18 15:47:34;;;;;;;0.90;0.90;;;1.00;99.90;0.50;101802.00;;;;5057606;28;20675;-72
2022/12/18 15:50:45;;;;;;;5.70;4.57;;;1.00;99.90;0.20;101796.00;;;;5051810;28;20223;-71
2022/12/18 15:53:39;;;;;;;2.03;1.87;;;1.00;99.90;0.40;101804.00;;;;5053616;28;20197;-71
2022/12/18 15:59:23;;;;;;;4.13;2.23;;;1.10;99.90;0.40;101767.00;;;;5069598;28;20224;-70
2022/12/18 16:02:22;;;;;;;12.90;3.73;;;1.00;99.90;0.30;101794.00;;;;5072967;28;20550;-70
2022/12/18 16:05:21;;;;;;;3.83;2.43;;;1.00;99.90;0.60;101800.00;;;;5057134;28;20613;-70
2022/12/18 16:07:57;;;;;;;2.80;2.60;;;1.00;99.90;0.50;101806.00;;;;5069763;28;20197;-70
2022/12/18 16:10:41;;;;;;;4.73;3.10;;;1.00;99.90;0.60;101800.00;;;;5056550;28;20185;-71
2022/12/18 16:13:47;;;;;;;6.03;2.13;;;1.10;99.90;0.80;101804.00;;;;5073938;28;20693;-71
2022/12/18 16:16:18;;;;;;;3.27;2.70;;;1.20;99.90;0.50;101790.00;;;;5055750;28;20183;-70
2022/12/18 16:19:12;;;;;;;5.50;2.63;;;1.10;99.90;0.70;101807.00;;;;5054994;28;20207;-70
2022/12/18 16:22:20;;;;;;;7.20;5.57;;;1.20;99.90;0.50;101802.00;;;;5054086;28;20216;-70
2022/12/18 16:24:57;;;;;;;3.10;2.63;;;1.20;99.90;0.30;101790.00;;;;5055737;28;20185;-70
2022/12/18 16:27:50;;;;;;;3.63;3.20;;;1.20;99.90;0.50;101793.00;;;;5055197;28;20185;-70
2022/12/18 16:30:22;;;;;;;6.37;5.70;;;1.20;99.90;0.40;101782.00;;;;5038370;28;20195;-70
2022/12/18 16:33:15;;;;;;;4.80;3.03;;;1.20;99.90;0.60;101720.00;;;;5055444;28;20694;-70
2022/12/18 16:36:04;;;;;;;6.50;4.07;;;1.20;99.90;1.00;101781.00;;;;5055763;28;20197;-70
2022/12/18 16:38:52;;;;;;;5.30;2.53;;;1.30;99.90;0.90;101786.00;;;;5039866;28;20275;-71
2022/12/18 16:41:59;;;;;;;7.23;4.90;;;1.40;99.90;0.80;101779.00;;;;5055091;28;20815;-71
2022/12/18 16:44:48;;;;;;;3.00;2.77;;;1.30;99.90;0.60;101695.00;;;;5055451;28;20699;-71
2022/12/18 16:47:49;;;;;;;1.93;1.83;;;1.20;99.90;0.60;101757.00;;;;5055455;28;20178;-71
2022/12/18 16:50:50;;;;;;;4.07;3.67;;;1.20;99.90;0.60;101766.00;;;;5071575;28;20276;-71
2022/12/18 16:53:56;;;;;;;1.97;1.87;;;1.30;99.90;0.90;101772.00;;;;5053325;28;20211;-71
2022/12/18 16:57:17;;;;;;;2.53;0.50;;;1.30;99.90;0.70;101772.00;;;;5055144;28;20212;-71
2022/12/18 17:00:14;;;;;;;2.33;2.17;;;1.30;99.90;0.90;101766.00;;;;5072933;28;20231;-71
2022/12/18 17:03:15;;;;;;;2.57;2.37;;;1.40;99.90;1.10;101762.00;;;;5055148;28;20190;-71
2022/12/18 17:06:05;;;;;;;3.00;2.87;;;1.40;99.90;0.80;101771.00;;;;5072685;28;20194;-71
2022/12/18 17:08:39;;;;;;;1.63;1.53;;;1.40;99.90;1.00;101716.00;;;;5053582;28;20201;-71
2022/12/18 17:11:11;;;;;;;4.80;1.27;;;1.50;99.90;0.90;101753.00;;;;5055965;28;20182;-71
2022/12/18 17:14:25;;;;;;;3.33;3.13;;;1.40;99.90;0.90;101768.00;;;;5073049;28;20194;-71
2022/12/18 17:17:36;;;;;;;1.90;1.67;;;1.50;99.90;1.10;101758.00;;;;5055185;28;20649;-71
2022/12/18 17:20:45;;;;;;;13.03;4.47;;;1.50;99.90;1.00;101740.00;;;;5054245;28;20190;-71
2022/12/18 17:23:39;;;;;;;6.53;2.03;;;1.50;99.90;0.70;101699.00;;;;5054891;28;20189;-71
2022/12/18 17:26:49;;;;;;;0.20;0.20;;;1.50;99.90;0.70;101760.00;;;;5047200;28;20193;-71
2022/12/18 17:29:55;;;;;;;3.07;2.87;;;1.40;99.90;0.80;101747.00;;;;5052848;28;20196;-71
2022/12/18 17:32:51;;;;;;;2.10;2.00;;;1.30;99.90;0.70;101741.00;;;;5053266;28;20737;-71
2022/12/18 17:35:32;;;;;;;0.43;0.43;;;1.30;99.90;0.80;101739.00;;;;5038434;28;20193;-71
2022/12/18 17:38:34;;;;;;;4.30;3.90;;;1.30;99.90;0.80;101722.00;;;;5073015;28;20224;-71
2022/12/18 17:41:45;;;;;;;7.50;5.43;;;1.40;99.90;1.00;101746.00;;;;5053030;28;20185;-71
2022/12/18 17:44:49;;;;;;;9.33;5.10;;;1.50;99.90;0.80;101731.00;;;;5056977;28;20205;-70
2022/12/18 17:47:26;;;;;;;3.07;2.87;;;1.40;99.90;0.90;101695.00;;;;5036765;28;20640;-71
2022/12/18 17:50:12;;;;;;;3.57;3.27;;;1.40;99.90;0.40;101742.00;;;;5055169;28;20189;-71
2022/12/18 17:53:14;;;;;;;3.87;3.37;;;1.30;99.90;0.60;101739.00;;;;5054629;28;20216;-71
2022/12/18 17:56:00;;;;;;;3.03;2.63;;;1.20;99.90;0.40;101689.00;;;;5053903;28;20184;-71
2022/12/18 17:58:56;;;;;;;2.60;2.40;;;1.20;99.90;0.50;101735.00;;;;5054813;28;20173;-71
2022/12/18 18:01:27;;;;;;;3.57;3.27;;;1.20;99.90;0.50;101732.00;;;;5054953;28;20227;-71
2022/12/18 18:03:58;;;;;;;6.37;5.87;;;1.20;99.90;0.50;101669.00;;;;5024627;28;20190;-71
2022/12/18 18:06:25;;;;;;;7.17;2.97;;;1.20;99.90;0.40;101731.00;;;;5037304;28;20190;-71
2022/12/18 18:08:53;;;;;;;3.10;2.80;;;1.10;99.90;0.30;101723.00;;;;5055288;28;20655;-71
2022/12/18 18:14:35;;;;;;;4.97;4.50;;;1.10;99.90;0.40;101699.00;;;;5070571;28;20599;-71
2022/12/18 18:17:01;;;;;;;4.70;4.27;;;1.20;99.90;0.30;101698.00;;;;5063081;28;20198;-70
2022/12/18 18:19:27;;;;;;;3.40;1.83;;;1.20;99.90;0.20;101650.00;;;;5039975;28;20192;-70
2022/12/18 18:21:53;;;;;;;6.53;4.80;;;1.10;99.90;0.20;101682.00;;;;5055526;28;20193;-70
2022/12/18 18:24:37;;;;;;;4.37;3.50;;;1.10;99.90;0.30;101695.00;;;;5057022;28;20587;-70
2022/12/18 18:27:04;;;;;;;2.53;2.30;;;1.10;99.90;0.20;101631.00;;;;5066711;28;20290;-70
2022/12/18 18:29:30;;;;;;;6.93;5.03;;;1.10;99.90;0.20;101698.00;;;;5053654;28;20189;-70
2022/12/18 18:31:56;;;;;;;6.23;3.13;;;1.10;99.90;0.30;101700.00;;;;5054565;28;20869;-70
2022/12/18 18:34:29;;;;;;;9.40;3.67;;;1.10;99.90;0.30;101698.00;;;;5054699;28;20197;-70
2022/12/18 18:36:55;;;;;;;10.50;4.13;;;1.20;99.90;0.40;101704.00;;;;5049825;28;20186;-70
2022/12/18 18:39:24;;;;;;;3.63;3.37;;;1.20;99.90;0.50;101703.00;;;;5054871;28;20185;-70
2022/12/18 18:41:50;;;;;;;5.87;4.53;;;1.20;99.90;0.00;101705.00;;;;5053873;28;20551;-70
2022/12/18 18:44:19;;;;;;;1.93;1.83;;;1.10;99.90;0.20;101710.00;;;;5071995;28;20553;-65
2022/12/18 18:47:13;;;;;;;1.67;1.30;;;1.10;99.90;0.10;101710.00;;;;5055753;28;20552;-62
2022/12/18 18:49:56;;;;;;;4.50;3.00;;;1.10;99.90;0.10;101685.00;;;;5067175;28;20196;-70
2022/12/18 18:52:42;;;;;;;3.50;2.67;;;1.10;99.90;0.20;101703.00;;;;5053355;28;20213;-70
2022/12/18 18:55:25;;;;;;;3.73;1.57;;;1.10;99.90;0.30;101732.00;;;;5059387;28;20178;-70
2022/12/18 18:57:54;;;;;;;9.80;7.27;;;1.20;99.90;0.00;101739.00;;;;5057357;28;20637;-70
2022/12/18 19:00:28;;;;;;;6.17;4.10;;;1.10;99.90;0.10;101737.00;;;;5057719;28;20189;-70
2022/12/18 19:02:54;;;;;;;3.13;2.83;;;1.10;99.90;0.10;101737.00;;;;5056264;28;20192;-70
2022/12/18 19:05:21;;;;;;;3.53;2.63;;;1.20;99.90;0.20;101746.00;;;;5057738;28;20586;-70
2022/12/18 19:07:52;;;;;;;4.37;3.93;;;1.20;99.90;-0.10;101736.00;;;;5056971;28;20644;-70
2022/12/18 19:10:29;;;;;;;1.63;1.63;;;1.10;99.90;0.00;101737.00;;;;5056833;28;20534;-70
2022/12/18 19:15:49;;;;;;;2.13;2.03;;;1.10;99.90;0.20;101742.00;;;;5075346;28;20274;-69
2022/12/18 19:18:23;;;;;;;3.03;2.40;;;1.20;99.90;0.10;101737.00;;;;5057974;28;20181;-69
2022/12/18 19:21:00;;;;;;;3.30;3.03;;;1.20;99.90;0.10;101733.00;;;;5056993;28;20234;-70
2022/12/18 19:23:54;;;;;;;3.63;3.27;;;1.20;99.90;0.00;101680.00;;;;5056396;28;20532;-70
2022/12/18 19:26:47;;;;;;;2.63;2.43;;;1.10;99.90;0.10;101726.00;;;;5041117;28;20204;-69
2022/12/18 19:29:51;;;;;;;8.70;5.80;;;1.10;99.90;0.30;101702.00;;;;5065369;28;20178;-69
2022/12/18 19:32:44;;;;;;;4.17;3.27;;;1.20;99.90;0.40;101718.00;;;;5047565;28;20212;-70
2022/12/18 19:35:47;;;;;;;14.20;3.33;;;1.30;99.90;0.50;101720.00;;;;5050485;28;20186;-70
2022/12/18 19:38:46;;;;;;;1.67;1.57;;;1.20;99.90;0.70;101669.00;;;;5039007;28;20189;-69
2022/12/18 19:41:23;;;;;;;1.37;1.37;;;1.30;99.90;0.70;101712.00;;;;5046917;28;20197;-69
2022/12/18 19:44:03;;;;;;;4.97;4.63;;;1.30;99.90;0.70;101691.00;;;;5058451;28;20577;-69
2022/12/18 19:46:37;;;;;;;4.90;4.57;;;1.40;99.90;0.90;101687.00;;;;5052066;28;20193;-69
2022/12/18 19:49:29;;;;;;;3.27;3.07;;;1.50;99.90;0.50;101690.00;;;;5075907;28;20268;-69
2022/12/18 19:52:25;;;;;;;10.73;7.70;;;1.40;99.90;1.00;101693.00;;;;5074474;28;20214;-69
2022/12/18 19:55:14;;;;;;;7.03;6.37;;;1.50;99.90;0.60;101689.00;;;;5040714;28;20200;-69
2022/12/18 19:58:06;;;;;;;7.23;6.57;;;1.40;99.90;0.40;101682.00;;;;5046825;28;20177;-69
2022/12/18 20:01:02;;;;;;;8.50;6.87;;;1.40;99.90;0.70;101679.00;;;;5057972;28;20204;-69
2022/12/18 20:03:51;;;;;;;5.93;4.90;;;1.40;99.90;0.50;101630.00;;;;5040636;28;20544;-69
2022/12/18 20:06:25;;;;;;;8.43;6.33;;;1.30;99.90;0.80;101680.00;;;;5049141;28;20193;-69
2022/12/18 20:09:10;;;;;;;2.00;2.00;;;1.40;99.90;0.60;101682.00;;;;5074771;28;20230;-69
2022/12/18 20:11:44;;;;;;;2.43;2.37;;;1.40;99.90;0.50;101669.00;;;;5084038;28;20556;-69
2022/12/18 20:14:17;;;;;;;6.20;5.60;;;1.30;99.90;1.00;101673.00;;;;5064507;28;20181;-69
2022/12/18 20:16:57;;;;;;;5.20;4.50;;;1.50;99.90;0.80;101670.00;;;;5065686;28;20197;-69
2022/12/18 20:20:07;;;;;;;5.43;4.07;;;1.50;99.90;0.80;101680.00;;;;5056914;28;20185;-69
2022/12/18 20:22:36;;;;;;;4.10;3.83;;;1.50;99.90;0.70;101672.00;;;;5057739;28;20660;-69
2022/12/18 20:25:31;;;;;;;10.07;5.47;;;1.50;99.90;0.40;101662.00;;;;5074925;28;20238;-68